breakingtheviciouscycle.info alexa rank chart, breakingtheviciouscycle.info alexa rank daily changes

breakingtheviciouscycle.info alexa rank chart, breakingtheviciouscycle.info alexa rank daily changes

breakingtheviciouscycle.info
Actual rank:
500 617

RANK HISTORY

Date Rank Diff
2017/09/22 500 617 +3 388
2017/09/20 497 229 +2 215
2017/09/19 495 014 -3 286
2017/09/18 498 300 +17 014
2017/09/17 481 286 -1 313
2017/09/16 482 599 -465
2017/09/15 483 064 +3 439
2017/09/14 479 625 -119
2017/09/13 479 744 +5 572
2017/09/12 474 172 +3 190
2017/09/11 470 982 +11 858
2017/09/10 459 124 -51 360
2017/09/09 510 484 +13 155
2017/09/08 497 329 +2 450
2017/09/07 494 879 +10 855
2017/09/06 484 024 +27 446
2017/09/05 456 578 +11 066
2017/09/04 445 512 +496
2017/09/03 445 016 +9 622
2017/09/02 435 394 -2 319
2017/09/01 437 713 +28 728
2017/08/31 408 985 -7 926
2017/08/30 416 911 +4 954
2017/08/29 411 957 -20 425
2017/08/28 432 382 +5 110
2017/08/27 427 272 -15 160
2017/08/26 442 432 -14 716
2017/08/25 457 148 -16 270
2017/08/24 473 418 -4 366
2017/08/23 477 784 -2 931
2017/08/22 480 715 -14 570
2017/08/21 495 285 -3 188
2017/08/20 498 473 -831
2017/08/19 499 304 -4 114
2017/08/18 503 418 -18 961
2017/08/17 522 379 -13 860
2017/08/16 536 239 +253
2017/08/15 535 986 +12 487
2017/08/14 523 499 -1 029
2017/08/13 524 528 -12 766
2017/08/12 537 294 +8 855
2017/08/11 528 439 +19 978
2017/08/10 508 461 +10 195
2017/08/09 498 266 -13 413
2017/08/08 511 679 +1 841
2017/08/07 509 838 +6 298
2017/08/06 503 540 -41 785
2017/08/05 545 325 -42 140
2017/08/04 587 465 +4 120
2017/08/03 583 345 -11 314
2017/08/02 594 659 +5 683
2017/08/01 588 976 -68 479
2017/07/31 657 455 -7 654
2017/07/30 665 109 -8 135
2017/07/29 673 244 +15 189
2017/07/28 658 055 -28 629
2017/07/27 686 684 -8 607
2017/07/26 695 291 +42 114
2017/07/25 653 177 -2 483
2017/07/24 655 660

WIDGET FOR YOUR SITE

DOMAINS WITH THE NEAREST RANK

Domain Rank
zapdasnovinhas.com 500 612
nuovosud.it 500 613
aandewatches.com 500 614
wstvb.com 500 615
shotdeadinthehead.com 500 616
breakingtheviciouscycle.info 500 617
narutohentai.club 500 618
socks-by-my-foot-fetish.myshopify.com 500 619
hothyipsmonitor.com 500 620
grafiteca.info 500 621
kitempleo.es 500 622

DOMAINS WITH THE NEAREST RANK BY TLD .info

Domain Rank
funtimenow.info 500 111
ugvcl.info 500 121
carblueprints.info 500 124
watchtalkforums.info 500 299
khawplak.info 500 436
breakingtheviciouscycle.info 500 617
grafiteca.info 500 621
podatnik.info 500 709
huer.info 500 815
datoveschranky.info 500 859
niskevesti.info 500 929